Rogers City, Michigan
Current Conditions -  °F | °C
As of 11:54 PM on Tuesday 25 Nov 2014 (Local Time) from KPZQ Reporting Station
Overcast Overcast  
Wind Chill: 26°   Ceiling: 3400
Heat Index: 26°   Visibility: 10mi
Dew Point: 25°   Wind: 3mph
Humidity: 96%   Direction: 210°SSW
Pressure: 30.16"   Gusts: NA
Location:  45.42°N, 83.82°W
Report Text: KPZQ 260454Z AUTO 21003KT 10SM OVC034 M03/M04 A3016 RMK AO2 T10321038
Loading
Personal Weather Stations






























Interactive Weather Map New forecast layout! Learn more

10-Day Weather Forecast

Advertisements
Track Severe Weather on mobile